Flight Track Log - Related Links

Times and Time Zones

All times are in EDT time to prevent confusion due to time zone crossing. See the KAP3 flight status page for this flight to view local times or setup timezone preferences in your user account.

Time Position Orientation Groundspeed Altitude Reporting Facility
EDT Latitude Longitude Course Direction KTS MPH feet Rate Location/Type
Tue 06:46:00 PM 42.3178 -70.9879 163° South  Level Estimated
Tue 06:47:00 PM 42.2727 -70.9694 163° South  Level Estimated
Tue 06:48:00 PM 42.2276 -70.9509 163° South  Level Estimated
Tue 06:49:00 PM 42.1825 -70.9324 163° South  Level Estimated
Tue 06:50:00 PM 42.1373 -70.9139 163° South  Level Estimated
Tue 06:51:00 PM 42.0922 -70.8955 163° South  Level Estimated
Tue 06:52:00 PM 42.0471 -70.8772 163° South  Level Estimated
Tue 06:53:00 PM 42.0019 -70.8588 163° South  Level Estimated
Tue 06:54:00 PM 41.9568 -70.8404 163° South  Level Estimated
Tue 06:55:00 PM 41.9117 -70.8221 163° South  Level Estimated
Tue 06:56:00 PM 41.8665 -70.8039 163° South  Level Estimated
Tue 06:57:00 PM 41.8214 -70.7856 163° South  Level Estimated
Tue 06:58:00 PM 41.7762 -70.7674 163° South  Level Estimated
Tue 06:59:00 PM 41.7310 -70.7492 163° South  Level Estimated
Tue 07:00:00 PM 41.6859 -70.7310 163° South  Level Estimated
Tue 07:01:00 PM 41.6407 -70.7128 163° South  Level Estimated
Tue 07:02:00 PM 41.5956 -70.6947 163° South  Level Estimated
Tue 07:03:00 PM 41.5504 -70.6766 163° South  Level Estimated
Tue 07:04:00 PM 41.5052 -70.6585 163° South  Level Estimated
Tue 07:05:00 PM 41.4600 -70.6405 163° South  Level Estimated
Tue 07:06:00 PM 41.4149 -70.6224 163° South  Level Estimated
Tue 07:07:00 PM 41.3934 -70.6139 163° South  Level Estimated
Tue 07:08:00 PM 41.3934 -70.6139 304° West  Level Estimated
Tue 07:09:00 PM 41.3934 -70.6139 304° West  Level Estimated
Tue 07:10:00 PM 41.3934 -70.6139 304° West  Level Estimated
Tue 07:10:57 PM 42.3667 -71.0167 304° West 116 133 500  Level KA90
Tue 07:11:00 PM 41.3934 -70.6139 304° West  Level Estimated
Tue 07:11:58 PM 42.3333 -71.0333 200° South 123 142 1,400  Level KA90
Tue 07:12:00 PM 41.3934 -70.6139 304° West  Level Estimated
Tue 07:13:00 PM 41.3934 -70.6139 304° West  Level Estimated
Tue 07:13:03 PM 42.3000 -71.0333 180° South 136 157 2,100  Level KA90
Tue 07:14:00 PM 41.3934 -70.6139 304° West  Level Estimated
Tue 07:14:03 PM 42.2500 -71.0333 180° South 138 159 2,800  Level KA90
Tue 07:15:00 PM 41.3934 -70.6139 304° West  Level Estimated
Tue 07:15:03 PM 42.2167 -71.0333 180° South 148 170 3,600  Level KA90
Tue 07:15:57 PM 42.1833 -71.0000 143° Southeast 143 165 4,200 730 Climbing KA90
Tue 07:16:00 PM 41.3934 -70.6139 304° West  Level Estimated
Tue 07:16:58 PM 42.1500 -70.9667 143° Southeast 145 167 5,000  Level KA90
Tue 07:18:00 PM 42.1167 -70.9333 143° Southeast 157 181 5,400 -14 Climbing KA90
Tue 07:19:00 PM 42.1066 -70.8758 103° East  Level FlightAware Approximate
Tue 07:26:00 PM 41.9731 -70.5197 140° Southeast  Level FlightAware Approximate
Tue 07:27:00 PM 41.9395 -70.4818 140° Southeast  Level FlightAware Approximate
Tue 07:28:00 PM 41.9059 -70.4440 140° Southeast  Level FlightAware Approximate
Tue 07:29:00 PM 41.8722 -70.4063 140° Southeast  Level FlightAware Approximate
Tue 07:30:00 PM 41.8301 -70.4000 180° South  Level FlightAware Approximate
Tue 07:31:00 PM 41.7863 -70.4000 180° South  Level FlightAware Approximate
Tue 07:32:00 PM 41.7425 -70.4000 180° South  Level FlightAware Approximate
Tue 07:33:00 PM 41.6986 -70.4000 180° South  Level FlightAware Approximate
Tue 07:34:00 PM 41.6548 -70.4000 180° South  Level FlightAware Approximate
Tue 07:35:00 PM 41.6110 -70.4000 180° South  Level FlightAware Approximate
Tue 07:36:00 PM 41.5672 -70.4000 180° South  Level FlightAware Approximate
Tue 07:37:00 PM 41.5331 -70.4365 221° Southwest  Level FlightAware Approximate
Tue 07:38:00 PM 41.5001 -70.4750 221° Southwest  Level FlightAware Approximate
Tue 07:39:00 PM 41.4670 -70.5135 221° Southwest  Level FlightAware Approximate
Tue 07:40:00 PM 41.4330 -70.5503 217° Southwest  Level FlightAware Approximate
Tue 07:41:00 PM 41.3980 -70.5854 217° Southwest  Level FlightAware Approximate
Tue 07:42:00 PM 41.3833 -70.6000 217° Southwest  Level FlightAware Approximate
Tue 07:43:00 PM 41.3934 -70.6139 217° Southwest  Level Estimated
Tue 07:44:00 PM 41.3934 -70.6139 217° Southwest  Level Estimated
Tue 07:45:00 PM 41.3934 -70.6139 217° Southwest  Level Estimated
Tue 07:46:00 PM 41.3934 -70.6139 217° Southwest  Level Estimated
Tue 07:47:00 PM 41.3934 -70.6139 217° Southwest  Level Estimated
Tue 07:48:00 PM 41.3934 -70.6139 217° Southwest  Level Estimated
Tue 07:49:00 PM 41.3934 -70.6139 217° Southwest  Level Estimated
Tue 07:50:00 PM 41.3934 -70.6139 217° Southwest  Level Estimated
Tue 07:51:00 PM 41.3934 -70.6139 217° Southwest  Level Estimated
Tue 07:52:00 PM 41.3934 -70.6139 217° Southwest  Level Estimated
Tue 07:53:00 PM 41.3934 -70.6139 217° Southwest  Level Estimated
Tue 07:53:22 PM 41.7667 -70.7667 360° North 165 190 4,500  Level KA90
Tue 07:54:00 PM 41.3934 -70.6139 217° Southwest  Level Estimated
Tue 07:55:00 PM 41.3934 -70.6139 217° Southwest  Level Estimated
Tue 07:56:00 PM 41.3934 -70.6139 217° Southwest  Level Estimated
Tue 07:57:00 PM 41.3934 -70.6139 217° Southwest  Level Estimated
Tue 07:58:00 PM 41.3934 -70.6139 217° Southwest  Level Estimated

Login

Don't have an account? Register now (free) for customized features, flight alerts, and more!